Jorge Hernandez

Главный скаут - Union Magdalena
2 Июл 2028
Воскресенье
Продолжить

Характер

Адаптивность (8) Амбиции (3) Скандальность (1) Верность (6) Стрессоустойчивость (14) Профессионализм (19) Благородство (14) Темперамент (17)

Профиль

Стиль управления Демократичный
Лицензия Континентальная C
Решительность 3
Управление людьми 4
Мотивация 10
Дисциплина 9
Удовлетворённость
100%
Усталость
0%
Должность Главный скаут
Зарплата 50.4K в нед.
Контракт 14.03.2029

Производительность

Поведение Хорошее
Эффективность тренировок
29%
Развитие игроков
55%
Профилактика травм
40%
Тактическая реализация
20%

Недавние события

Участвовал в селекционном совещании 7 дн. назад
Оценил игрока 7 дн. назад
Участвовал в селекционном совещании 14 дн. назад
Высказался против трансферной цели 14 дн. назад
Участвовал в селекционном совещании 21 дн. назад
Высказался против трансферной цели 21 дн. назад
Участвовал в селекционном совещании 28 дн. назад
Участвовал в селекционном совещании 35 дн. назад

Текущее наблюдение

97
Игрок Клуб Статус Способность Уверенность Наблюдений Последнее наблюдение Последний голос
Rodrigo Benítez Tranmere Rovers Активный 92 / 100 40% 1 21.06.2028 -
Ethan Erhahon Cheltenham Town Активный 121 / 119 40% 1 21.06.2028 -
Milton Castagna Walsall Активный 100 / 107 40% 1 21.06.2028 -
Gustavo Hamer Sheffield United Активный 142 / 151 40% 1 20.06.2028 -
Matthew Litherland Harrogate Town Активный 112 / 114 40% 1 20.06.2028 -
George Earthy Reading Активный 111 / 119 40% 1 20.06.2028 -
Jhon Cortez Barranquilla Отклонён 79 / 99 69% 1 06.06.2028 Против
Matty Stevens AFC Wimbledon Активный 90 / 97 40% 6 30.05.2027 -
Patrick Cutrone Monza Активный 136 / 126 40% 4 27.05.2027 -
Alassana Jatta Notts County Активный 108 / 114 40% 1 23.05.2027 -
Ekain Orobengoa Real Sociedad Активный 111 / 107 40% 3 22.05.2027 -
John Yeboah Venezia Активный 118 / 131 40% 2 22.05.2027 -
Richard Koné Queens Park Rangers Активный 113 / 117 40% 1 21.05.2027 -
Don Bolsius Ascoli Активный 106 / 98 40% 1 20.05.2027 -
Rui Costa Port Vale Активный 100 / 94 40% 3 15.05.2027 -
Filippo Distefano Empoli Активный 127 / 125 40% 1 15.05.2027 -
Tyreece Campbell Charlton Athletic Активный 121 / 116 40% 2 13.05.2027 -
Callum Lang Preston Активный 111 / 123 40% 1 13.05.2027 -
Samuel Kalu Botev Plovdiv Активный 127 / 125 40% 5 12.05.2027 -
Elijah Adebayo Luton Town Активный 124 / 126 40% 1 11.05.2027 -
Ioannis Pittas CSKA Sofia Активный 117 / 135 40% 1 06.05.2027 -
Ettore Gliozzi Mantova Активный 131 / 114 40% 1 02.05.2027 -
Malik Mothersille Stockport County Активный 109 / 100 40% 3 01.05.2027 -
Marco Tumminello Benevento Активный 115 / 106 40% 2 29.04.2027 -
Stephen Humphrys Bradford City Активный 108 / 120 40% 4 29.04.2027 -
Justo Giani Umraniyespor Активный 116 / 133 40% 4 28.04.2027 -
Martin Sekulić Ural Активный 100 / 98 40% 2 28.04.2027 -
Lorent Tolaj Plymouth Argyle Активный 109 / 124 40% 3 26.04.2027 -
Sam Nombe Milton Keynes Dons Активный 125 / 123 40% 3 26.04.2027 -
Federico Martínez MFK Ruzomberok Активный 123 / 131 40% 2 25.04.2027 -
Aaron Drinan Swindon Town Активный 101 / 85 40% 1 18.04.2027 -
Dale Taylor Blackpool Активный 114 / 105 40% 4 17.04.2027 -
Aidomo Emakhu Oxford United Активный 112 / 137 40% 1 14.04.2027 -
John McAtee Leyton Orient Активный 120 / 98 40% 3 12.04.2027 -
Tyrese Shade Burton Albion Активный 86 / 111 40% 1 12.04.2027 -
Peter Itodo Metalist Активный 101 / 114 40% 2 08.04.2027 -
Simone Rabbi Ravenna Активный 104 / 111 40% 2 08.04.2027 -
Alberto Cerri Cesena Активный 128 / 111 40% 1 07.04.2027 -
Eric Ramírez Ankaragucu Активный 127 / 115 40% 1 07.04.2027 -
Giacomo Zecca Torres Активный 112 / 87 40% 1 04.04.2027 -
Kyle Wootton Stockport County Активный 136 / 131 40% 2 30.03.2027 -
Will Swan Bradford City Активный 94 / 111 40% 1 30.03.2027 -
Job Ochieng Real Sociedad Активный 112 / 121 40% 2 26.03.2027 -
Mees Rijks Bristol Rovers Активный 118 / 102 40% 1 26.03.2027 -
Egas Cacintura Akhmat Grozny Активный 127 / 104 40% 1 23.03.2027 -
Oleh Kozhushko Bukovyna Активный 119 / 87 40% 1 20.03.2027 -
Oleksii Hutsuliak Polissia Активный 121 / 137 40% 1 18.03.2027 -
Robertino Giacomini Panserraikos Активный 98 / 105 40% 1 17.03.2027 -
Moussakoye Diallo Stade Malien Активный 109 / 112 40% 1 17.03.2027 -
Luca Moro Padova Активный 106 / 114 40% 1 16.03.2027 -
Anatole Abang USM Alger Активный 115 / 104 40% 1 15.03.2027 -
Salah Mohsen El Masry Активный 113 / 124 40% 2 14.03.2027 -
Samuel Tetteh Liberty Professionals Активный 104 / 91 40% 1 12.03.2027 -
Wandile Duba ASO Chlef Активный 93 / 101 40% 2 10.03.2027 -
Stiven Shpendi Empoli Активный 127 / 131 40% 1 10.03.2027 -
Kamran Aliev SKA Khabarovsk Активный 92 / 83 40% 1 08.03.2027 -
Gonzalo Valenzuela Radnicki Nis Активный 119 / 100 40% 2 07.03.2027 -
Ilja Safronov Rotor Активный 105 / 110 40% 1 06.03.2027 -
Brayan Gil Baltika Активный 137 / 111 40% 3 02.03.2027 -
Ondřej Lingr Korona Активный 133 / 138 40% 1 01.03.2027 -
Nardin Mulahusejnović Vojvodina Активный 108 / 129 40% 2 27.02.2027 -
Thierry Ambrose KV Kortrijk Активный 115 / 131 40% 1 22.02.2027 -
Sam Dalby Bolton Wanderers Активный 125 / 114 40% 1 13.02.2027 -
Vyacheslav Grulev Nizhniy Novgorod Активный 108 / 121 40% 2 12.02.2027 -
Stanislav Ivanov Arda Активный 129 / 124 40% 1 06.02.2027 -
Patrick Schmidt Tarxien Rainbows Активный 95 / 93 40% 1 05.02.2027 -
David Ankeye Zeleznicar Pancevo Активный 113 / 119 40% 1 03.02.2027 -
Yeangel Montero Naxxar Lions Активный 98 / 96 40% 1 02.02.2027 -
Antony Alonso Deportivo Riestra Активный 132 / 131 40% 1 01.02.2027 -
Marezi Portsmouth Активный 114 / 112 40% 1 28.11.2026 -
Marcos Cuenca Zaragoza Активный 96 / 120 40% 1 26.11.2026 -
Alejandro Piedrahita Deportivo Pereira Активный 131 / 127 40% 1 26.11.2026 -
Lautaro Gordillo Colegiales Активный 120 / 120 40% 1 23.11.2026 -
Emiliano Saliadarre Miramar Misiones Активный 107 / 113 40% 1 17.11.2026 -
Agustín Gallo Tristán Suárez Активный 112 / 117 40% 1 17.11.2026 -
Lucas Varaldo Morelia Активный 132 / 111 40% 2 15.11.2026 -
José Alvarado Leon Активный 118 / 108 40% 1 15.11.2026 -
Favio Cabral Mitre Активный 122 / 109 40% 1 12.11.2026 -
Ignacio Russo Tigre Активный 119 / 124 40% 1 04.11.2026 -
Renzo Reynaga Patronato Активный 108 / 104 40% 1 02.11.2026 -
Augusto Berrondo Tristán Suárez Активный 103 / 117 40% 1 31.10.2026 -
José Barreto Quilmes Активный 104 / 108 40% 1 31.10.2026 -
Wessam Abou Ali Columbus Crew Активный 128 / 135 40% 1 30.10.2026 -
Mohamed-Ali Cho Hull City Активный 122 / 150 40% 1 29.10.2026 -
Manuel Pagano Imotski Активный 98 / 80 40% 1 27.10.2026 -
Pedro Vite Pumas UNAM Активный 108 / 112 40% 1 25.10.2026 -
Ramiro Ruiz Rodríguez Atlético Tucumán Активный 124 / 116 40% 1 25.10.2026 -
Santiago Sala Güemes Активный 109 / 101 40% 1 25.10.2026 -
Fabrizio Sartori Independiente Rivadavia Активный 119 / 126 40% 1 24.10.2026 -
Lucas Acosta Liverpool Montevideo Активный 109 / 110 40% 1 22.10.2026 -
Bénie Traoré New York City Активный 115 / 107 40% 1 22.10.2026 -
Santiago Toloza O'Higgins Активный 122 / 115 40% 1 21.10.2026 -
Rodrigo López Pumas UNAM Активный 130 / 129 40% 1 20.10.2026 -
Franco Zapiola Platense Активный 124 / 127 40% 1 20.10.2026 -
Alex Luna Instituto Активный 139 / 120 40% 1 18.10.2026 -
Bryan González Guadalajara Активный 131 / 124 40% 1 01.08.2026 -
Giovanni González River Plate Активный 129 / 134 40% 1 01.08.2026 -